sensor_id;sensor_type;location;lat;lon;timestamp;P1;durP1;ratioP1;P2;durP2;ratioP2
63664;SDS011;49820;33.966;73.390;2023-07-31T02:47:36;8.70;;;6.70;;
63664;SDS011;49820;33.966;73.390;2023-07-31T02:50:06;10.15;;;6.32;;
63664;SDS011;49820;33.966;73.390;2023-07-31T02:52:36;10.75;;;6.70;;
63664;SDS011;49820;33.966;73.390;2023-07-31T02:55:06;7.70;;;4.63;;
63664;SDS011;49820;33.966;73.390;2023-07-31T02:57:35;9.70;;;6.32;;
63664;SDS011;49820;33.966;73.390;2023-07-31T03:00:04;6.85;;;4.80;;
63664;SDS011;49820;33.966;73.390;2023-07-31T03:02:35;8.03;;;5.57;;
63664;SDS011;49820;33.966;73.390;2023-07-31T03:05:05;6.78;;;5.03;;
63664;SDS011;49820;33.966;73.390;2023-07-31T03:07:35;7.80;;;4.50;;
63664;SDS011;49820;33.966;73.390;2023-07-31T03:10:06;7.10;;;5.25;;
63664;SDS011;49820;33.966;73.390;2023-07-31T03:12:35;17.43;;;13.07;;
63664;SDS011;49820;33.966;73.390;2023-07-31T03:15:06;20.57;;;15.90;;
63664;SDS011;49820;33.966;73.390;2023-07-31T03:17:36;9.23;;;7.18;;
63664;SDS011;49820;33.966;73.390;2023-07-31T03:20:06;7.70;;;5.75;;
63664;SDS011;49820;33.966;73.390;2023-07-31T03:22:37;8.00;;;5.28;;
63664;SDS011;49820;33.966;73.390;2023-07-31T03:25:06;6.63;;;4.70;;
63664;SDS011;49820;33.966;73.390;2023-07-31T03:27:37;8.18;;;6.30;;
63664;SDS011;49820;33.966;73.390;2023-07-31T03:30:08;10.90;;;5.40;;
63664;SDS011;49820;33.966;73.390;2023-07-31T03:32:38;8.32;;;5.53;;
63664;SDS011;49820;33.966;73.390;2023-07-31T03:35:07;8.52;;;5.95;;
63664;SDS011;49820;33.966;73.390;2023-07-31T03:37:36;5.72;;;4.15;;
63664;SDS011;49820;33.966;73.390;2023-07-31T03:40:06;10.18;;;5.07;;
63664;SDS011;49820;33.966;73.390;2023-07-31T03:42:35;7.40;;;5.68;;
63664;SDS011;49820;33.966;73.390;2023-07-31T03:45:05;7.85;;;5.05;;
63664;SDS011;49820;33.966;73.390;2023-07-31T03:47:34;8.40;;;5.38;;
63664;SDS011;49820;33.966;73.390;2023-07-31T03:50:03;6.20;;;4.57;;
63664;SDS011;49820;33.966;73.390;2023-07-31T03:52:33;10.30;;;5.32;;
63664;SDS011;49820;33.966;73.390;2023-07-31T03:55:03;7.65;;;5.35;;
63664;SDS011;49820;33.966;73.390;2023-07-31T03:57:33;7.22;;;5.35;;
63664;SDS011;49820;33.966;73.390;2023-07-31T04:00:02;7.38;;;5.15;;
63664;SDS011;49820;33.966;73.390;2023-07-31T04:02:37;7.33;;;5.07;;
63664;SDS011;49820;33.966;73.390;2023-07-31T04:05:07;7.50;;;5.13;;
63664;SDS011;49820;33.966;73.390;2023-07-31T04:07:37;8.90;;;5.13;;
63664;SDS011;49820;33.966;73.390;2023-07-31T04:10:06;7.75;;;5.53;;
63664;SDS011;49820;33.966;73.390;2023-07-31T04:12:39;9.18;;;4.85;;
63664;SDS011;49820;33.966;73.390;2023-07-31T04:15:08;8.32;;;5.35;;
63664;SDS011;49820;33.966;73.390;2023-07-31T04:17:38;8.52;;;5.47;;
63664;SDS011;49820;33.966;73.390;2023-07-31T04:20:07;9.13;;;5.38;;
63664;SDS011;49820;33.966;73.390;2023-07-31T04:22:37;6.97;;;5.20;;
63664;SDS011;49820;33.966;73.390;2023-07-31T04:25:06;6.47;;;4.72;;
63664;SDS011;49820;33.966;73.390;2023-07-31T04:27:35;8.63;;;5.07;;
63664;SDS011;49820;33.966;73.390;2023-07-31T04:30:05;8.27;;;5.20;;
63664;SDS011;49820;33.966;73.390;2023-07-31T04:32:34;8.98;;;5.25;;
63664;SDS011;49820;33.966;73.390;2023-07-31T04:35:04;7.22;;;4.53;;
63664;SDS011;49820;33.966;73.390;2023-07-31T04:37:33;7.32;;;4.45;;
63664;SDS011;49820;33.966;73.390;2023-07-31T04:40:02;7.10;;;5.00;;
63664;SDS011;49820;33.966;73.390;2023-07-31T04:42:31;8.25;;;4.70;;
63664;SDS011;49820;33.966;73.390;2023-07-31T04:45:01;6.93;;;4.55;;
63664;SDS011;49820;33.966;73.390;2023-07-31T04:47:30;8.20;;;4.65;;
63664;SDS011;49820;33.966;73.390;2023-07-31T04:49:59;7.15;;;4.65;;
63664;SDS011;49820;33.966;73.390;2023-07-31T04:52:28;6.40;;;4.32;;
63664;SDS011;49820;33.966;73.390;2023-07-31T04:54:58;6.70;;;4.17;;
63664;SDS011;49820;33.966;73.390;2023-07-31T04:57:27;8.07;;;4.68;;
63664;SDS011;49820;33.966;73.390;2023-07-31T04:59:56;10.40;;;5.22;;
63664;SDS011;49820;33.966;73.390;2023-07-31T05:02:25;8.07;;;4.85;;
63664;SDS011;49820;33.966;73.390;2023-07-31T05:04:56;11.73;;;5.40;;
63664;SDS011;49820;33.966;73.390;2023-07-31T05:07:28;8.93;;;5.07;;
63664;SDS011;49820;33.966;73.390;2023-07-31T05:09:57;10.65;;;5.05;;
63664;SDS011;49820;33.966;73.390;2023-07-31T05:12:26;10.77;;;5.70;;
63664;SDS011;49820;33.966;73.390;2023-07-31T05:14:58;8.65;;;5.50;;
63664;SDS011;49820;33.966;73.390;2023-07-31T05:17:28;9.70;;;5.57;;
63664;SDS011;49820;33.966;73.390;2023-07-31T05:19:58;9.40;;;5.70;;
63664;SDS011;49820;33.966;73.390;2023-07-31T05:22:26;12.75;;;6.88;;
63664;SDS011;49820;33.966;73.390;2023-07-31T05:24:56;12.40;;;8.15;;
63664;SDS011;49820;33.966;73.390;2023-07-31T05:27:26;9.77;;;6.75;;
63664;SDS011;49820;33.966;73.390;2023-07-31T05:29:55;8.90;;;5.93;;
63664;SDS011;49820;33.966;73.390;2023-07-31T05:32:24;10.63;;;7.50;;
63664;SDS011;49820;33.966;73.390;2023-07-31T05:34:53;9.80;;;6.70;;
63664;SDS011;49820;33.966;73.390;2023-07-31T05:37:22;9.98;;;6.30;;
63664;SDS011;49820;33.966;73.390;2023-07-31T05:39:52;9.75;;;5.95;;
63664;SDS011;49820;33.966;73.390;2023-07-31T05:42:21;8.52;;;5.72;;
63664;SDS011;49820;33.966;73.390;2023-07-31T05:44:50;9.02;;;6.15;;
63664;SDS011;49820;33.966;73.390;2023-07-31T05:47:19;9.20;;;5.47;;
63664;SDS011;49820;33.966;73.390;2023-07-31T05:49:48;8.40;;;5.35;;
63664;SDS011;49820;33.966;73.390;2023-07-31T05:52:20;9.05;;;5.28;;
63664;SDS011;49820;33.966;73.390;2023-07-31T05:54:49;7.40;;;5.07;;
63664;SDS011;49820;33.966;73.390;2023-07-31T05:57:18;9.15;;;6.20;;
63664;SDS011;49820;33.966;73.390;2023-07-31T05:59:47;8.88;;;5.50;;
63664;SDS011;49820;33.966;73.390;2023-07-31T06:02:16;8.35;;;5.72;;
63664;SDS011;49820;33.966;73.390;2023-07-31T06:04:45;10.52;;;5.90;;
63664;SDS011;49820;33.966;73.390;2023-07-31T06:07:15;12.00;;;6.15;;
63664;SDS011;49820;33.966;73.390;2023-07-31T06:09:47;8.02;;;6.00;;
63664;SDS011;49820;33.966;73.390;2023-07-31T06:12:19;8.90;;;5.70;;
63664;SDS011;49820;33.966;73.390;2023-07-31T06:14:48;7.70;;;6.10;;
63664;SDS011;49820;33.966;73.390;2023-07-31T06:17:17;8.17;;;5.80;;
63664;SDS011;49820;33.966;73.390;2023-07-31T06:19:49;9.45;;;6.20;;
63664;SDS011;49820;33.966;73.390;2023-07-31T06:22:18;8.88;;;5.90;;
63664;SDS011;49820;33.966;73.390;2023-07-31T06:24:47;8.43;;;5.15;;
63664;SDS011;49820;33.966;73.390;2023-07-31T06:27:16;9.32;;;6.47;;
63664;SDS011;49820;33.966;73.390;2023-07-31T06:29:46;8.23;;;6.07;;
63664;SDS011;49820;33.966;73.390;2023-07-31T06:32:16;9.52;;;6.72;;
63664;SDS011;49820;33.966;73.390;2023-07-31T06:34:57;11.18;;;5.93;;
63664;SDS011;49820;33.966;73.390;2023-07-31T06:37:41;7.53;;;5.30;;
63664;SDS011;49820;33.966;73.390;2023-07-31T06:40:12;8.48;;;5.70;;
63664;SDS011;49820;33.966;73.390;2023-07-31T06:42:45;7.57;;;4.78;;
63664;SDS011;49820;33.966;73.390;2023-07-31T06:45:14;8.85;;;5.55;;
63664;SDS011;49820;33.966;73.390;2023-07-31T06:47:44;9.32;;;5.95;;
63664;SDS011;49820;33.966;73.390;2023-07-31T06:50:16;10.00;;;6.30;;
63664;SDS011;49820;33.966;73.390;2023-07-31T06:52:44;8.20;;;5.53;;
63664;SDS011;49820;33.966;73.390;2023-07-31T06:55:20;9.02;;;6.28;;
63664;SDS011;49820;33.966;73.390;2023-07-31T06:57:53;9.13;;;5.88;;
63664;SDS011;49820;33.966;73.390;2023-07-31T07:00:23;10.83;;;6.00;;
63664;SDS011;49820;33.966;73.390;2023-07-31T07:02:52;8.15;;;5.43;;
63664;SDS011;49820;33.966;73.390;2023-07-31T07:05:22;11.07;;;5.97;;
63664;SDS011;49820;33.966;73.390;2023-07-31T07:07:50;14.10;;;7.25;;
63664;SDS011;49820;33.966;73.390;2023-07-31T07:10:20;8.65;;;5.88;;
63664;SDS011;49820;33.966;73.390;2023-07-31T07:12:49;9.40;;;5.93;;
63664;SDS011;49820;33.966;73.390;2023-07-31T07:15:19;9.07;;;5.85;;
63664;SDS011;49820;33.966;73.390;2023-07-31T07:17:48;11.32;;;6.63;;
63664;SDS011;49820;33.966;73.390;2023-07-31T07:20:19;12.15;;;6.38;;
63664;SDS011;49820;33.966;73.390;2023-07-31T07:22:48;11.38;;;6.07;;
63664;SDS011;49820;33.966;73.390;2023-07-31T07:25:17;8.00;;;5.97;;
63664;SDS011;49820;33.966;73.390;2023-07-31T07:27:47;8.95;;;6.18;;
63664;SDS011;49820;33.966;73.390;2023-07-31T07:30:17;8.02;;;5.88;;
63664;SDS011;49820;33.966;73.390;2023-07-31T07:32:46;9.27;;;5.67;;
63664;SDS011;49820;33.966;73.390;2023-07-31T07:35:19;8.55;;;5.50;;
63664;SDS011;49820;33.966;73.390;2023-07-31T07:37:50;8.50;;;5.30;;
63664;SDS011;49820;33.966;73.390;2023-07-31T07:40:19;10.45;;;7.30;;
63664;SDS011;49820;33.966;73.390;2023-07-31T07:42:49;11.98;;;7.38;;
63664;SDS011;49820;33.966;73.390;2023-07-31T07:45:19;11.18;;;7.13;;
63664;SDS011;49820;33.966;73.390;2023-07-31T07:47:47;9.55;;;7.07;;
63664;SDS011;49820;33.966;73.390;2023-07-31T07:50:16;12.68;;;8.75;;
63664;SDS011;49820;33.966;73.390;2023-07-31T07:52:46;11.07;;;7.97;;
63664;SDS011;49820;33.966;73.390;2023-07-31T07:55:15;13.30;;;8.60;;
63664;SDS011;49820;33.966;73.390;2023-07-31T07:57:44;12.07;;;8.13;;
63664;SDS011;49820;33.966;73.390;2023-07-31T08:00:13;10.57;;;6.95;;
63664;SDS011;49820;33.966;73.390;2023-07-31T08:02:42;10.33;;;6.80;;
63664;SDS011;49820;33.966;73.390;2023-07-31T08:05:12;9.15;;;6.18;;
63664;SDS011;49820;33.966;73.390;2023-07-31T08:07:41;7.65;;;4.95;;
63664;SDS011;49820;33.966;73.390;2023-07-31T08:10:10;7.18;;;4.93;;
63664;SDS011;49820;33.966;73.390;2023-07-31T08:12:39;7.18;;;4.90;;
63664;SDS011;49820;33.966;73.390;2023-07-31T08:15:08;7.60;;;4.87;;
63664;SDS011;49820;33.966;73.390;2023-07-31T08:17:42;9.20;;;5.43;;
63664;SDS011;49820;33.966;73.390;2023-07-31T08:20:11;12.68;;;5.60;;
63664;SDS011;49820;33.966;73.390;2023-07-31T08:22:41;8.18;;;4.20;;
63664;SDS011;49820;33.966;73.390;2023-07-31T08:25:10;7.30;;;3.90;;
63664;SDS011;49820;33.966;73.390;2023-07-31T08:27:42;7.65;;;3.65;;
63664;SDS011;49820;33.966;73.390;2023-07-31T08:30:12;7.90;;;4.40;;
63664;SDS011;49820;33.966;73.390;2023-07-31T08:32:41;6.95;;;3.70;;
63664;SDS011;49820;33.966;73.390;2023-07-31T08:35:10;6.15;;;3.55;;
63664;SDS011;49820;33.966;73.390;2023-07-31T08:37:39;6.38;;;3.60;;
63664;SDS011;49820;33.966;73.390;2023-07-31T08:40:08;5.05;;;3.20;;
63664;SDS011;49820;33.966;73.390;2023-07-31T08:42:49;4.93;;;2.88;;
63664;SDS011;49820;33.966;73.390;2023-07-31T08:45:19;7.07;;;3.20;;
63664;SDS011;49820;33.966;73.390;2023-07-31T08:47:49;4.75;;;2.42;;
63664;SDS011;49820;33.966;73.390;2023-07-31T08:50:20;8.03;;;3.20;;
63664;SDS011;49820;33.966;73.390;2023-07-31T08:52:50;6.95;;;3.08;;
63664;SDS011;49820;33.966;73.390;2023-07-31T08:55:23;5.60;;;2.47;;
63664;SDS011;49820;33.966;73.390;2023-07-31T08:57:52;6.25;;;2.60;;
63664;SDS011;49820;33.966;73.390;2023-07-31T09:00:23;10.10;;;4.03;;
63664;SDS011;49820;33.966;73.390;2023-07-31T09:03:01;9.00;;;3.50;;
63664;SDS011;49820;33.966;73.390;2023-07-31T09:05:35;8.23;;;3.23;;
63664;SDS011;49820;33.966;73.390;2023-07-31T09:11:11;5.93;;;3.17;;
63664;SDS011;49820;33.966;73.390;2023-07-31T09:13:41;5.88;;;2.63;;
63664;SDS011;49820;33.966;73.390;2023-07-31T09:16:11;6.75;;;2.88;;
63664;SDS011;49820;33.966;73.390;2023-07-31T09:18:54;5.13;;;2.70;;
63664;SDS011;49820;33.966;73.390;2023-07-31T09:21:24;7.27;;;4.40;;
63664;SDS011;49820;33.966;73.390;2023-07-31T09:23:58;8.05;;;5.00;;
63664;SDS011;49820;33.966;73.390;2023-07-31T09:26:33;13.98;;;8.70;;
63664;SDS011;49820;33.966;73.390;2023-07-31T09:29:07;17.00;;;10.90;;
63664;SDS011;49820;33.966;73.390;2023-07-31T09:31:47;13.83;;;10.07;;
63664;SDS011;49820;33.966;73.390;2023-07-31T09:34:16;13.63;;;8.20;;
63664;SDS011;49820;33.966;73.390;2023-07-31T09:36:46;10.10;;;6.32;;
63664;SDS011;49820;33.966;73.390;2023-07-31T09:39:17;7.80;;;5.33;;
63664;SDS011;49820;33.966;73.390;2023-07-31T09:41:53;8.25;;;4.60;;
63664;SDS011;49820;33.966;73.390;2023-07-31T09:44:39;14.83;;;12.60;;
63664;SDS011;49820;33.966;73.390;2023-07-31T09:47:23;28.50;;;24.63;;
63664;SDS011;49820;33.966;73.390;2023-07-31T09:49:54;46.40;;;41.22;;
63664;SDS011;49820;33.966;73.390;2023-07-31T09:52:27;42.38;;;36.67;;
63664;SDS011;49820;33.966;73.390;2023-07-31T09:54:55;23.63;;;16.88;;
63664;SDS011;49820;33.966;73.390;2023-07-31T09:57:26;30.85;;;27.55;;
63664;SDS011;49820;33.966;73.390;2023-07-31T10:00:01;25.95;;;22.58;;
63664;SDS011;49820;33.966;73.390;2023-07-31T10:02:37;21.50;;;16.83;;
63664;SDS011;49820;33.966;73.390;2023-07-31T10:05:07;14.80;;;8.90;;
63664;SDS011;49820;33.966;73.390;2023-07-31T10:07:37;17.83;;;12.65;;
63664;SDS011;49820;33.966;73.390;2023-07-31T10:10:07;13.32;;;11.05;;
63664;SDS011;49820;33.966;73.390;2023-07-31T10:12:38;16.33;;;11.93;;
63664;SDS011;49820;33.966;73.390;2023-07-31T10:15:09;13.60;;;11.27;;
63664;SDS011;49820;33.966;73.390;2023-07-31T10:17:38;16.73;;;14.63;;
63664;SDS011;49820;33.966;73.390;2023-07-31T10:20:08;16.30;;;10.77;;
63664;SDS011;49820;33.966;73.390;2023-07-31T10:22:38;10.15;;;7.07;;
63664;SDS011;49820;33.966;73.390;2023-07-31T10:25:07;21.20;;;18.95;;
63664;SDS011;49820;33.966;73.390;2023-07-31T10:27:39;9.77;;;5.00;;
63664;SDS011;49820;33.966;73.390;2023-07-31T10:30:09;13.57;;;9.50;;
63664;SDS011;49820;33.966;73.390;2023-07-31T10:32:45;8.27;;;5.63;;
63664;SDS011;49820;33.966;73.390;2023-07-31T10:35:21;12.88;;;8.20;;
63664;SDS011;49820;33.966;73.390;2023-07-31T10:37:53;9.60;;;7.60;;
63664;SDS011;49820;33.966;73.390;2023-07-31T10:40:24;12.32;;;8.65;;
63664;SDS011;49820;33.966;73.390;2023-07-31T10:42:55;35.80;;;32.08;;
63664;SDS011;49820;33.966;73.390;2023-07-31T10:45:36;24.00;;;21.25;;
63664;SDS011;49820;33.966;73.390;2023-07-31T10:48:15;8.18;;;6.97;;
63664;SDS011;49820;33.966;73.390;2023-07-31T10:50:49;8.77;;;6.72;;
63664;SDS011;49820;33.966;73.390;2023-07-31T10:53:26;5.28;;;3.17;;
63664;SDS011;49820;33.966;73.390;2023-07-31T10:55:59;4.78;;;2.40;;
63664;SDS011;49820;33.966;73.390;2023-07-31T10:58:28;7.63;;;2.87;;
63664;SDS011;49820;33.966;73.390;2023-07-31T11:01:00;5.53;;;2.63;;
63664;SDS011;49820;33.966;73.390;2023-07-31T11:03:46;5.50;;;2.50;;
63664;SDS011;49820;33.966;73.390;2023-07-31T11:06:29;5.93;;;3.20;;
63664;SDS011;49820;33.966;73.390;2023-07-31T11:08:58;6.15;;;4.70;;
63664;SDS011;49820;33.966;73.390;2023-07-31T11:11:27;7.07;;;4.10;;
63664;SDS011;49820;33.966;73.390;2023-07-31T11:13:56;6.45;;;3.40;;
63664;SDS011;49820;33.966;73.390;2023-07-31T11:16:25;5.45;;;3.45;;
63664;SDS011;49820;33.966;73.390;2023-07-31T11:18:54;8.02;;;4.25;;
63664;SDS011;49820;33.966;73.390;2023-07-31T11:21:24;8.40;;;5.60;;
63664;SDS011;49820;33.966;73.390;2023-07-31T11:23:56;9.43;;;5.00;;
63664;SDS011;49820;33.966;73.390;2023-07-31T11:26:26;8.25;;;5.93;;
63664;SDS011;49820;33.966;73.390;2023-07-31T11:28:56;8.90;;;6.13;;
63664;SDS011;49820;33.966;73.390;2023-07-31T11:31:25;8.55;;;5.63;;
63664;SDS011;49820;33.966;73.390;2023-07-31T11:34:05;10.38;;;5.22;;
63664;SDS011;49820;33.966;73.390;2023-07-31T11:36:34;12.93;;;5.68;;
63664;SDS011;49820;33.966;73.390;2023-07-31T11:39:05;8.88;;;5.30;;
63664;SDS011;49820;33.966;73.390;2023-07-31T11:41:35;8.10;;;5.97;;
63664;SDS011;49820;33.966;73.390;2023-07-31T11:44:04;9.43;;;5.90;;
63664;SDS011;49820;33.966;73.390;2023-07-31T11:46:56;10.20;;;5.63;;
63664;SDS011;49820;33.966;73.390;2023-07-31T11:49:25;9.30;;;5.47;;
63664;SDS011;49820;33.966;73.390;2023-07-31T11:51:59;6.68;;;5.40;;
63664;SDS011;49820;33.966;73.390;2023-07-31T11:54:28;9.35;;;6.00;;
63664;SDS011;49820;33.966;73.390;2023-07-31T11:56:57;9.00;;;6.10;;
63664;SDS011;49820;33.966;73.390;2023-07-31T11:59:29;8.65;;;5.43;;
63664;SDS011;49820;33.966;73.390;2023-07-31T12:01:58;10.10;;;6.10;;
63664;SDS011;49820;33.966;73.390;2023-07-31T12:04:27;12.57;;;6.80;;
63664;SDS011;49820;33.966;73.390;2023-07-31T12:07:00;9.73;;;6.10;;
63664;SDS011;49820;33.966;73.390;2023-07-31T12:09:29;11.93;;;5.78;;
63664;SDS011;49820;33.966;73.390;2023-07-31T12:11:58;13.18;;;6.53;;
63664;SDS011;49820;33.966;73.390;2023-07-31T12:14:28;9.32;;;5.85;;
63664;SDS011;49820;33.966;73.390;2023-07-31T12:16:59;6.90;;;4.47;;
63664;SDS011;49820;33.966;73.390;2023-07-31T12:19:31;6.50;;;3.63;;
63664;SDS011;49820;33.966;73.390;2023-07-31T12:22:01;6.30;;;4.05;;
63664;SDS011;49820;33.966;73.390;2023-07-31T12:24:30;6.55;;;3.40;;
63664;SDS011;49820;33.966;73.390;2023-07-31T12:27:07;6.57;;;3.70;;
63664;SDS011;49820;33.966;73.390;2023-07-31T12:29:38;10.27;;;3.85;;
63664;SDS011;49820;33.966;73.390;2023-07-31T12:32:22;5.05;;;3.50;;
63664;SDS011;49820;33.966;73.390;2023-07-31T12:34:53;6.50;;;3.47;;
63664;SDS011;49820;33.966;73.390;2023-07-31T12:37:22;7.22;;;3.63;;
63664;SDS011;49820;33.966;73.390;2023-07-31T12:39:51;7.47;;;3.50;;
63664;SDS011;49820;33.966;73.390;2023-07-31T12:42:20;4.97;;;3.17;;
63664;SDS011;49820;33.966;73.390;2023-07-31T12:44:49;5.82;;;3.08;;
63664;SDS011;49820;33.966;73.390;2023-07-31T12:47:18;6.13;;;3.50;;
63664;SDS011;49820;33.966;73.390;2023-07-31T12:49:47;10.18;;;4.45;;
63664;SDS011;49820;33.966;73.390;2023-07-31T12:52:15;10.30;;;5.57;;
63664;SDS011;49820;33.966;73.390;2023-07-31T12:54:44;7.15;;;5.00;;
63664;SDS011;49820;33.966;73.390;2023-07-31T12:57:14;8.23;;;4.95;;
63664;SDS011;49820;33.966;73.390;2023-07-31T12:59:43;7.75;;;4.85;;
63664;SDS011;49820;33.966;73.390;2023-07-31T13:02:12;7.65;;;4.85;;
63664;SDS011;49820;33.966;73.390;2023-07-31T13:04:44;6.50;;;4.32;;
63664;SDS011;49820;33.966;73.390;2023-07-31T13:07:20;11.43;;;6.65;;
63664;SDS011;49820;33.966;73.390;2023-07-31T13:09:50;7.87;;;5.17;;
63664;SDS011;49820;33.966;73.390;2023-07-31T13:12:19;9.45;;;5.32;;
63664;SDS011;49820;33.966;73.390;2023-07-31T13:14:49;10.10;;;5.05;;
63664;SDS011;49820;33.966;73.390;2023-07-31T13:17:21;6.72;;;5.03;;
63664;SDS011;49820;33.966;73.390;2023-07-31T13:19:50;7.32;;;5.10;;
63664;SDS011;49820;33.966;73.390;2023-07-31T13:22:19;8.75;;;5.05;;
63664;SDS011;49820;33.966;73.390;2023-07-31T13:24:48;5.88;;;3.90;;
63664;SDS011;49820;33.966;73.390;2023-07-31T13:27:17;7.50;;;4.83;;
63664;SDS011;49820;33.966;73.390;2023-07-31T13:29:49;8.85;;;5.80;;
63664;SDS011;49820;33.966;73.390;2023-07-31T13:32:19;9.35;;;6.20;;
63664;SDS011;49820;33.966;73.390;2023-07-31T13:34:48;10.20;;;6.90;;
63664;SDS011;49820;33.966;73.390;2023-07-31T13:37:18;10.00;;;7.70;;
63664;SDS011;49820;33.966;73.390;2023-07-31T13:39:47;13.18;;;8.05;;
63664;SDS011;49820;33.966;73.390;2023-07-31T13:42:16;11.98;;;8.10;;
63664;SDS011;49820;33.966;73.390;2023-07-31T13:44:46;14.65;;;8.93;;
63664;SDS011;49820;33.966;73.390;2023-07-31T13:47:14;14.48;;;9.25;;
63664;SDS011;49820;33.966;73.390;2023-07-31T13:49:43;15.05;;;10.07;;
